Time;durP1;ratioP1;P1;durP2;ratioP2;P2;SDS_P1;SDS_P2;PMS_P1;PMS_P2;Temp;Humidity;BMP_temperature;BMP_pressure;BME280_temperature;BME280_humidity;BME280_pressure;Samples;Min_cycle;Max_cycle;Signal;HPM_P1;HPM_P2
2023/08/29 00:00:31;;;;;;;0.98;0.98;;;21.90;93.50;;;;;;5046571;28;20183;-71
2023/08/29 00:03:03;;;;;;;0.93;0.90;;;21.90;93.50;;;;;;5046934;28;20199;-71
2023/08/29 00:05:29;;;;;;;1.35;1.20;;;21.90;93.50;;;;;;5050743;28;20218;-71
2023/08/29 00:07:55;;;;;;;1.10;1.00;;;21.90;93.50;;;;;;5046139;28;20202;-71
2023/08/29 00:10:21;;;;;;;1.08;1.08;;;21.90;93.60;;;;;;5045303;28;20301;-71
2023/08/29 00:12:47;;;;;;;1.08;1.08;;;21.90;93.50;;;;;;5028364;28;20240;-71
2023/08/29 00:15:13;;;;;;;1.00;1.00;;;21.90;93.50;;;;;;5044953;28;20221;-71
2023/08/29 00:17:39;;;;;;;1.10;1.10;;;21.90;93.50;;;;;;5054758;28;20246;-71
2023/08/29 00:20:05;;;;;;;1.10;1.10;;;21.90;93.50;;;;;;5028263;28;20241;-71
2023/08/29 00:22:31;;;;;;;1.10;0.98;;;21.90;93.50;;;;;;5053050;28;20186;-71
2023/08/29 00:24:58;;;;;;;1.77;1.20;;;21.90;93.50;;;;;;5052934;28;20208;-71
2023/08/29 00:27:24;;;;;;;0.90;0.90;;;21.90;93.50;;;;;;5044487;28;20215;-70
2023/08/29 00:29:50;;;;;;;1.50;1.30;;;21.90;93.50;;;;;;5045949;28;20202;-71
2023/08/29 00:32:16;;;;;;;1.50;1.13;;;21.90;93.50;;;;;;5043410;28;20185;-70
2023/08/29 00:34:42;;;;;;;1.10;1.10;;;21.90;93.50;;;;;;5041301;28;20237;-71
2023/08/29 00:37:08;;;;;;;1.10;1.10;;;21.80;93.40;;;;;;5065563;28;20198;-72
2023/08/29 00:39:34;;;;;;;0.90;0.90;;;21.90;93.50;;;;;;5052794;28;20273;-71
2023/08/29 00:42:00;;;;;;;1.17;1.10;;;21.90;93.50;;;;;;5029566;28;20195;-71
2023/08/29 00:44:26;;;;;;;1.02;0.98;;;21.90;93.50;;;;;;5031707;28;20178;-70
2023/08/29 00:46:53;;;;;;;1.42;1.08;;;21.80;93.40;;;;;;5041153;28;20248;-71
2023/08/29 00:49:24;;;;;;;0.90;0.90;;;21.80;93.40;;;;;;5050894;28;20599;-71
2023/08/29 00:51:51;;;;;;;1.17;1.08;;;21.80;93.40;;;;;;5041006;28;20180;-71
2023/08/29 00:54:20;;;;;;;1.10;1.10;;;21.80;93.50;;;;;;5038789;28;20175;-70
2023/08/29 00:56:48;;;;;;;1.73;1.08;;;21.90;93.50;;;;;;5018736;28;20207;-71
2023/08/29 00:59:14;;;;;;;1.00;1.00;;;21.80;93.50;;;;;;5038637;28;20235;-71
2023/08/29 01:01:41;;;;;;;0.93;0.93;;;21.80;93.50;;;;;;5052195;28;20190;-71
2023/08/29 01:04:10;;;;;;;0.98;0.98;;;21.80;93.50;;;;;;5052038;28;20224;-71
2023/08/29 01:06:37;;;;;;;1.15;1.15;;;21.90;93.50;;;;;;5027476;28;20206;-70
2023/08/29 01:09:06;;;;;;;1.10;1.10;;;21.80;93.50;;;;;;5029230;28;20299;-71
2023/08/29 01:12:07;;;;;;;1.10;1.00;;;21.90;93.50;;;;;;5044023;28;20198;-71
2023/08/29 01:14:54;;;;;;;0.80;0.80;;;21.90;93.50;;;;;;5052055;28;20178;-71
2023/08/29 01:17:47;;;;;;;0.80;0.80;;;21.80;93.50;;;;;;5035249;28;20237;-70
2023/08/29 01:20:14;;;;;;;1.00;1.00;;;21.80;93.50;;;;;;5035479;28;20677;-71
2023/08/29 01:23:10;;;;;;;1.00;1.00;;;21.80;93.50;;;;;;5048318;28;20184;-71
2023/08/29 01:26:07;;;;;;;0.90;0.90;;;21.80;93.50;;;;;;5043429;28;20206;-71
2023/08/29 01:28:33;;;;;;;1.42;1.33;;;21.80;93.50;;;;;;5043356;28;20222;-71
2023/08/29 01:31:00;;;;;;;1.10;1.10;;;21.80;93.50;;;;;;5042304;28;20215;-71
2023/08/29 01:33:27;;;;;;;0.90;0.90;;;21.80;93.50;;;;;;5025052;28;20187;-71
2023/08/29 01:35:53;;;;;;;1.00;1.00;;;21.80;93.50;;;;;;5050984;28;20210;-70
2023/08/29 01:38:21;;;;;;;1.00;0.90;;;21.80;93.50;;;;;;5032272;28;20192;-71
2023/08/29 01:40:46;;;;;;;1.58;1.00;;;21.80;93.50;;;;;;5040022;28;20232;-71
2023/08/29 01:43:12;;;;;;;1.08;1.08;;;21.80;93.50;;;;;;5064800;28;20189;-71
2023/08/29 01:45:38;;;;;;;1.00;1.00;;;21.80;93.40;;;;;;5026498;28;20222;-71
2023/08/29 01:48:05;;;;;;;1.55;1.00;;;21.80;93.50;;;;;;5051418;28;20249;-71
2023/08/29 01:50:34;;;;;;;1.13;1.10;;;21.80;93.50;;;;;;5040882;28;20274;-71
2023/08/29 01:53:00;;;;;;;0.98;0.98;;;21.80;93.50;;;;;;5029358;28;20224;-70
2023/08/29 01:55:28;;;;;;;0.95;0.95;;;21.80;93.50;;;;;;5042745;28;20207;-71
2023/08/29 01:57:57;;;;;;;1.10;1.00;;;21.80;93.50;;;;;;5051532;28;20233;-71
2023/08/29 02:00:24;;;;;;;1.13;1.13;;;21.80;93.50;;;;;;5051410;28;20186;-71
2023/08/29 02:02:50;;;;;;;1.30;1.20;;;21.80;93.50;;;;;;5047666;28;20210;-71
2023/08/29 02:05:15;;;;;;;0.93;0.93;;;21.80;93.50;;;;;;5048746;28;20213;-71
2023/08/29 02:07:41;;;;;;;0.90;0.90;;;21.80;93.50;;;;;;5044053;28;20253;-71
2023/08/29 02:10:08;;;;;;;1.50;1.20;;;21.80;93.50;;;;;;5026696;28;20585;-71
2023/08/29 02:12:34;;;;;;;1.10;1.10;;;21.80;93.50;;;;;;5051316;28;20178;-70
2023/08/29 02:15:00;;;;;;;1.23;1.13;;;21.80;93.50;;;;;;5042513;28;20328;-70
2023/08/29 02:17:27;;;;;;;1.08;1.00;;;21.80;93.40;;;;;;5026113;28;20215;-71
2023/08/29 02:19:52;;;;;;;1.00;1.00;;;21.80;93.40;;;;;;5050713;28;20194;-70
2023/08/29 02:22:18;;;;;;;1.10;1.08;;;21.80;93.40;;;;;;5050757;28;20221;-71
2023/08/29 02:24:47;;;;;;;1.10;1.10;;;21.80;93.50;;;;;;5050623;28;20182;-70
2023/08/29 02:27:14;;;;;;;1.17;1.10;;;21.80;93.40;;;;;;5043058;28;20246;-71
2023/08/29 02:29:40;;;;;;;0.90;0.90;;;21.80;93.40;;;;;;5050404;28;20182;-71
2023/08/29 02:32:07;;;;;;;0.93;0.93;;;21.80;93.40;;;;;;5042641;28;20189;-71
2023/08/29 02:34:33;;;;;;;1.02;1.02;;;21.80;93.50;;;;;;5034049;28;20187;-71
2023/08/29 02:36:59;;;;;;;1.02;0.98;;;21.80;93.50;;;;;;5050299;28;20567;-71
2023/08/29 02:39:24;;;;;;;1.15;1.05;;;21.80;93.40;;;;;;5033865;28;20190;-71
2023/08/29 02:41:50;;;;;;;1.00;1.00;;;21.80;93.50;;;;;;5027851;28;20219;-71
2023/08/29 02:44:16;;;;;;;1.30;1.20;;;21.80;93.40;;;;;;5042409;28;20189;-69
2023/08/29 02:46:41;;;;;;;1.30;1.20;;;21.80;93.40;;;;;;5039296;28;20234;-71
2023/08/29 02:49:07;;;;;;;1.05;1.05;;;21.80;93.50;;;;;;5028818;28;20202;-71
2023/08/29 02:51:33;;;;;;;1.00;1.00;;;21.80;93.50;;;;;;5030574;28;20205;-71
2023/08/29 02:53:59;;;;;;;0.95;0.90;;;21.80;93.50;;;;;;5050482;28;20195;-70
2023/08/29 02:56:25;;;;;;;1.00;1.00;;;21.70;93.40;;;;;;5042007;28;20211;-70
2023/08/29 02:58:52;;;;;;;1.05;1.05;;;21.80;93.50;;;;;;5035665;28;20554;-71
2023/08/29 03:01:17;;;;;;;1.30;1.20;;;21.80;93.50;;;;;;5026382;28;20183;-70
2023/08/29 03:03:43;;;;;;;1.77;1.15;;;21.70;93.50;;;;;;5041811;28;20217;-71
2023/08/29 03:06:09;;;;;;;1.23;1.10;;;21.70;93.40;;;;;;5025296;28;20217;-71
2023/08/29 03:08:35;;;;;;;1.13;1.10;;;21.70;93.40;;;;;;5025650;28;20239;-71
2023/08/29 03:11:05;;;;;;;1.10;1.10;;;21.70;93.40;;;;;;5042354;28;20178;-71
2023/08/29 03:13:32;;;;;;;1.35;1.25;;;21.70;93.40;;;;;;5048914;28;20190;-71
2023/08/29 03:16:01;;;;;;;1.00;1.00;;;21.70;93.30;;;;;;5043189;28;20209;-71
2023/08/29 03:18:27;;;;;;;1.30;1.20;;;21.70;93.40;;;;;;5026717;28;20301;-71
2023/08/29 03:20:54;;;;;;;1.45;1.20;;;21.70;93.30;;;;;;5037826;28;20340;-70
2023/08/29 03:23:19;;;;;;;1.10;1.10;;;21.70;93.30;;;;;;5046476;28;20191;-69
2023/08/29 03:25:46;;;;;;;0.70;0.70;;;21.80;93.40;;;;;;5033743;28;20261;-71
2023/08/29 03:28:11;;;;;;;1.40;1.30;;;21.70;93.40;;;;;;5026225;28;20282;-71
2023/08/29 03:30:37;;;;;;;1.35;1.20;;;21.70;93.30;;;;;;5050782;28;20217;-71
2023/08/29 03:33:03;;;;;;;1.02;0.93;;;21.70;93.50;;;;;;5045681;28;20265;-70
2023/08/29 03:35:29;;;;;;;0.95;0.95;;;21.80;93.40;;;;;;5028669;28;20262;-71
2023/08/29 03:37:55;;;;;;;1.20;1.10;;;21.70;93.40;;;;;;5030508;28;20199;-71
2023/08/29 03:40:21;;;;;;;0.98;0.98;;;21.80;93.50;;;;;;5038312;28;20183;-71
2023/08/29 03:42:47;;;;;;;1.15;0.80;;;21.70;93.40;;;;;;5050684;28;20202;-71
2023/08/29 03:45:15;;;;;;;1.10;1.10;;;21.80;93.50;;;;;;5046656;28;20256;-70
2023/08/29 03:47:40;;;;;;;1.10;1.05;;;21.70;93.40;;;;;;5044008;28;20226;-70
2023/08/29 03:50:07;;;;;;;1.00;0.90;;;21.70;93.40;;;;;;5049442;28;20190;-71
2023/08/29 03:52:33;;;;;;;1.13;1.13;;;21.70;93.40;;;;;;5043002;28;20242;-71
2023/08/29 03:54:59;;;;;;;1.30;1.20;;;21.80;93.50;;;;;;5046464;28;20210;-71
2023/08/29 03:57:28;;;;;;;1.17;1.10;;;21.70;93.40;;;;;;5037093;28;20210;-71
2023/08/29 03:59:55;;;;;;;0.90;0.90;;;21.70;93.40;;;;;;5053832;28;20687;-71
2023/08/29 04:02:21;;;;;;;0.82;0.82;;;21.70;93.40;;;;;;5044938;28;20202;-71
2023/08/29 04:04:51;;;;;;;1.00;1.00;;;21.70;93.30;;;;;;5052543;28;20273;-71
2023/08/29 04:07:17;;;;;;;1.33;1.20;;;21.70;93.30;;;;;;5036810;28;20233;-71
2023/08/29 04:09:43;;;;;;;1.20;1.10;;;21.70;93.30;;;;;;5028827;28;20178;-71
2023/08/29 04:12:10;;;;;;;1.20;1.10;;;21.80;93.40;;;;;;5036982;28;20183;-71
2023/08/29 04:14:37;;;;;;;0.98;0.93;;;21.70;93.30;;;;;;5045009;28;20273;-71
2023/08/29 04:17:03;;;;;;;1.20;1.15;;;21.70;93.40;;;;;;5044833;28;20201;-71
2023/08/29 04:19:30;;;;;;;1.13;1.13;;;21.70;93.30;;;;;;5036137;28;20252;-71
2023/08/29 04:21:56;;;;;;;1.08;1.08;;;21.70;93.40;;;;;;5044882;28;20198;-71
2023/08/29 04:24:22;;;;;;;0.80;0.80;;;21.70;93.40;;;;;;5036452;28;20178;-70
2023/08/29 04:26:48;;;;;;;1.00;1.00;;;21.70;93.40;;;;;;5028010;28;20210;-71
2023/08/29 04:29:14;;;;;;;1.13;1.10;;;21.70;93.40;;;;;;5046166;28;20278;-71
2023/08/29 04:31:40;;;;;;;1.00;1.00;;;21.70;93.40;;;;;;5042044;28;20187;-71
2023/08/29 04:34:05;;;;;;;1.02;0.93;;;21.70;93.40;;;;;;5052870;28;20181;-71
2023/08/29 04:36:31;;;;;;;1.23;1.23;;;21.70;93.40;;;;;;5044141;28;20202;-71
2023/08/29 04:38:57;;;;;;;0.93;0.93;;;21.70;93.40;;;;;;5036190;28;20209;-71
2023/08/29 04:41:23;;;;;;;1.10;1.10;;;21.70;93.40;;;;;;5036159;28;20187;-70
2023/08/29 04:43:48;;;;;;;0.95;0.95;;;21.70;93.40;;;;;;5052785;28;20191;-71
2023/08/29 04:46:14;;;;;;;1.20;1.10;;;21.70;93.40;;;;;;5035847;28;20206;-71
2023/08/29 04:48:40;;;;;;;2.58;1.10;;;21.70;93.40;;;;;;5051383;28;20575;-71
2023/08/29 04:51:05;;;;;;;0.90;0.90;;;21.70;93.40;;;;;;5029334;28;20187;-71
2023/08/29 04:53:33;;;;;;;0.90;0.90;;;21.70;93.40;;;;;;5044317;28;20189;-71
2023/08/29 04:56:04;;;;;;;1.00;1.00;;;21.70;93.40;;;;;;5028117;28;20210;-70
2023/08/29 04:58:34;;;;;;;1.02;1.02;;;21.70;93.40;;;;;;5044354;28;20178;-71
2023/08/29 05:01:00;;;;;;;1.17;1.17;;;21.70;93.30;;;;;;5048619;28;20217;-70
2023/08/29 05:03:27;;;;;;;1.00;1.00;;;21.70;93.30;;;;;;5024301;28;20207;-70
2023/08/29 05:05:54;;;;;;;1.00;1.00;;;21.70;93.40;;;;;;5023462;28;20265;-70
2023/08/29 05:08:20;;;;;;;0.90;0.90;;;21.70;93.40;;;;;;5032386;28;20203;-71
2023/08/29 05:10:46;;;;;;;0.90;0.90;;;21.70;93.40;;;;;;5042078;28;20183;-71
2023/08/29 05:13:13;;;;;;;0.82;0.82;;;21.70;93.40;;;;;;5044023;28;20179;-71
2023/08/29 05:15:39;;;;;;;0.93;0.93;;;21.70;93.40;;;;;;5052032;28;20218;-71
2023/08/29 05:18:05;;;;;;;1.00;1.00;;;21.70;93.40;;;;;;5027356;28;20190;-71
2023/08/29 05:20:31;;;;;;;0.93;0.93;;;21.70;93.30;;;;;;5052149;28;20237;-71
2023/08/29 05:22:57;;;;;;;0.80;0.80;;;21.70;93.40;;;;;;5043503;28;20182;-71
2023/08/29 05:25:23;;;;;;;1.00;1.00;;;21.70;93.40;;;;;;5044648;28;20186;-71
2023/08/29 05:27:48;;;;;;;1.10;1.10;;;21.70;93.40;;;;;;5049894;28;20222;-71
2023/08/29 05:30:14;;;;;;;0.90;0.90;;;21.70;93.40;;;;;;5028953;28;20182;-71
2023/08/29 05:32:40;;;;;;;1.20;1.00;;;21.70;93.40;;;;;;5023994;28;20246;-71
2023/08/29 05:35:09;;;;;;;0.80;0.80;;;21.70;93.40;;;;;;5041714;28;20175;-71
2023/08/29 05:37:35;;;;;;;0.98;0.98;;;21.70;93.40;;;;;;5031807;28;20190;-71
2023/08/29 05:40:00;;;;;;;1.00;1.00;;;21.70;93.40;;;;;;5051064;28;20186;-71
2023/08/29 05:42:27;;;;;;;0.90;0.90;;;21.70;93.40;;;;;;5042957;28;20197;-71
2023/08/29 05:44:52;;;;;;;1.20;1.20;;;21.70;93.40;;;;;;5049344;28;20187;-71
2023/08/29 05:47:18;;;;;;;1.25;1.15;;;21.70;93.40;;;;;;5033200;28;20221;-71
2023/08/29 05:49:44;;;;;;;1.00;1.00;;;21.70;93.40;;;;;;5039248;28;20194;-71
2023/08/29 05:52:10;;;;;;;0.90;0.90;;;21.70;93.40;;;;;;5030466;28;20202;-70
2023/08/29 05:54:38;;;;;;;0.95;0.90;;;21.70;93.40;;;;;;5023273;28;20182;-71
2023/08/29 05:57:05;;;;;;;1.08;1.08;;;21.70;93.40;;;;;;5042936;28;20206;-71
2023/08/29 05:59:31;;;;;;;0.80;0.80;;;21.70;93.40;;;;;;5052323;28;20192;-72
2023/08/29 06:01:56;;;;;;;1.02;1.00;;;21.70;93.40;;;;;;5042575;28;20182;-71
2023/08/29 06:04:22;;;;;;;0.82;0.82;;;21.70;93.50;;;;;;5044166;28;20194;-71
2023/08/29 06:06:49;;;;;;;0.88;0.77;;;21.70;93.40;;;;;;5026465;28;20229;-71
2023/08/29 06:09:15;;;;;;;1.10;1.00;;;21.70;93.40;;;;;;5052223;28;20202;-70
2023/08/29 06:11:42;;;;;;;1.10;1.00;;;21.70;93.40;;;;;;5018794;28;20178;-71
2023/08/29 06:14:07;;;;;;;1.10;1.10;;;21.70;93.40;;;;;;5034165;28;20631;-71
2023/08/29 06:16:33;;;;;;;1.10;1.00;;;21.70;93.50;;;;;;5043509;28;20295;-72
2023/08/29 06:18:59;;;;;;;1.23;1.13;;;21.70;93.40;;;;;;5033183;28;20189;-71
2023/08/29 06:21:25;;;;;;;1.00;1.00;;;21.70;93.40;;;;;;5037667;28;20198;-71
2023/08/29 06:23:51;;;;;;;1.25;1.15;;;21.70;93.40;;;;;;5030421;28;20230;-71
2023/08/29 06:26:16;;;;;;;0.82;0.82;;;21.70;93.40;;;;;;5013621;28;20241;-71
2023/08/29 06:28:42;;;;;;;1.20;1.20;;;21.70;93.40;;;;;;5042809;28;20225;-70
2023/08/29 06:31:08;;;;;;;1.10;1.10;;;21.70;93.40;;;;;;5046389;28;20673;-70
2023/08/29 06:33:35;;;;;;;1.00;1.00;;;21.70;93.40;;;;;;5043666;28;20175;-70
2023/08/29 06:36:01;;;;;;;1.33;1.23;;;21.70;93.40;;;;;;5046656;28;20210;-70
2023/08/29 06:38:27;;;;;;;0.90;0.90;;;21.70;93.40;;;;;;5046367;28;20185;-70
2023/08/29 06:40:58;;;;;;;0.98;0.98;;;21.70;93.40;;;;;;5013175;28;20185;-70
2023/08/29 06:43:25;;;;;;;1.00;1.00;;;21.70;93.40;;;;;;5039132;28;20187;-70
2023/08/29 06:45:51;;;;;;;1.00;1.00;;;21.60;93.30;;;;;;5047829;28;20214;-70
2023/08/29 06:48:17;;;;;;;1.15;1.05;;;21.70;93.30;;;;;;5050692;28;20297;-69
2023/08/29 06:50:43;;;;;;;0.98;0.98;;;21.70;93.20;;;;;;5050685;28;20193;-70
2023/08/29 06:53:09;;;;;;;1.20;1.10;;;21.70;93.20;;;;;;5032247;28;20194;-69
2023/08/29 06:55:35;;;;;;;1.08;1.08;;;21.60;93.10;;;;;;5045696;28;20199;-70
2023/08/29 06:58:04;;;;;;;1.10;1.10;;;21.60;93.10;;;;;;5042423;28;20182;-70
2023/08/29 07:00:31;;;;;;;1.10;1.10;;;21.70;93.20;;;;;;5028480;28;20218;-70
2023/08/29 07:02:58;;;;;;;1.15;1.08;;;21.70;93.10;;;;;;5031800;28;20183;-70
2023/08/29 07:05:24;;;;;;;1.30;1.20;;;21.60;93.10;;;;;;5021998;28;20218;-70
2023/08/29 07:07:50;;;;;;;1.10;1.10;;;21.70;93.20;;;;;;5039119;28;20215;-70
2023/08/29 07:10:16;;;;;;;1.17;1.13;;;21.70;93.20;;;;;;5030476;28;20671;-69
2023/08/29 07:12:42;;;;;;;1.15;1.15;;;21.70;93.20;;;;;;5043842;28;20178;-69
2023/08/29 07:15:08;;;;;;;0.90;0.90;;;21.70;93.20;;;;;;5046407;28;20723;-69
2023/08/29 07:17:34;;;;;;;1.10;1.10;;;21.70;93.10;;;;;;5038581;28;20175;-70
2023/08/29 07:20:02;;;;;;;0.90;0.90;;;21.70;93.00;;;;;;5023913;28;20209;-70
2023/08/29 07:22:28;;;;;;;1.02;1.02;;;21.70;93.10;;;;;;5049612;28;20183;-70
2023/08/29 07:24:53;;;;;;;1.10;1.10;;;21.70;93.00;;;;;;5043021;28;20199;-68
2023/08/29 07:27:19;;;;;;;0.80;0.80;;;21.70;93.10;;;;;;5049890;28;20236;-69
2023/08/29 07:29:46;;;;;;;1.08;1.08;;;21.70;93.00;;;;;;5042199;28;20167;-69
2023/08/29 07:32:12;;;;;;;1.10;1.10;;;21.70;93.10;;;;;;5038375;28;20189;-70
2023/08/29 07:34:39;;;;;;;1.08;1.08;;;21.70;93.00;;;;;;5043340;28;20175;-69
2023/08/29 07:37:05;;;;;;;1.05;1.05;;;21.70;93.00;;;;;;5040113;28;20211;-70
2023/08/29 07:39:32;;;;;;;1.45;1.30;;;21.70;93.10;;;;;;5045360;28;20234;-70
2023/08/29 07:41:58;;;;;;;1.52;1.25;;;21.70;93.00;;;;;;5023953;28;20176;-68
2023/08/29 07:44:23;;;;;;;6.20;1.40;;;21.70;92.80;;;;;;5038326;28;20210;-70
2023/08/29 07:46:49;;;;;;;4.18;1.20;;;21.80;92.90;;;;;;5030226;28;20240;-70
2023/08/29 07:49:20;;;;;;;1.98;1.00;;;21.80;92.70;;;;;;5041929;28;20198;-70
2023/08/29 07:51:47;;;;;;;1.15;1.02;;;21.70;92.70;;;;;;5025340;28;20186;-69
2023/08/29 07:54:12;;;;;;;4.65;1.20;;;21.80;92.90;;;;;;5046571;28;20250;-70
2023/08/29 07:56:38;;;;;;;1.75;1.40;;;21.70;92.80;;;;;;5039379;28;20785;-70
2023/08/29 07:59:04;;;;;;;3.97;1.50;;;21.70;92.80;;;;;;5039905;28;20203;-70
2023/08/29 08:01:29;;;;;;;3.03;1.02;;;21.70;92.90;;;;;;5033227;28;20638;-70
2023/08/29 08:03:55;;;;;;;2.42;1.60;;;21.70;93.00;;;;;;5050509;28;20190;-70
2023/08/29 08:06:21;;;;;;;1.30;1.20;;;21.70;92.90;;;;;;5042509;28;20207;-70
2023/08/29 08:08:47;;;;;;;1.42;1.23;;;21.70;92.90;;;;;;5041294;28;20214;-70
2023/08/29 08:11:12;;;;;;;1.05;1.02;;;21.70;92.80;;;;;;5050492;28;20194;-70
2023/08/29 08:13:38;;;;;;;3.25;1.23;;;21.70;92.80;;;;;;5052177;28;20189;-69
2023/08/29 08:16:04;;;;;;;1.17;1.08;;;21.70;92.90;;;;;;5033140;28;20687;-70
2023/08/29 08:18:30;;;;;;;1.35;1.20;;;21.70;92.80;;;;;;5048034;28;20187;-69
2023/08/29 08:20:55;;;;;;;1.50;1.35;;;21.70;92.70;;;;;;5050068;28;20225;-70
2023/08/29 08:23:21;;;;;;;3.05;1.20;;;21.70;92.80;;;;;;5052991;28;20254;-69
2023/08/29 08:25:47;;;;;;;2.75;1.30;;;21.70;92.80;;;;;;5045196;28;20207;-69
2023/08/29 08:28:13;;;;;;;1.58;1.10;;;21.70;92.70;;;;;;5046957;28;20222;-70
2023/08/29 08:30:39;;;;;;;1.02;0.95;;;21.70;92.70;;;;;;5045945;28;20252;-69
2023/08/29 08:33:06;;;;;;;0.95;0.95;;;21.70;92.70;;;;;;5036193;28;20206;-70
2023/08/29 08:35:32;;;;;;;1.17;1.08;;;21.70;92.70;;;;;;5027667;28;20221;-69
2023/08/29 08:37:58;;;;;;;0.90;0.90;;;21.70;92.60;;;;;;5036488;28;20189;-70
2023/08/29 08:40:24;;;;;;;1.08;0.98;;;21.70;92.60;;;;;;5044774;28;20198;-69
2023/08/29 08:42:50;;;;;;;1.23;1.10;;;21.70;92.40;;;;;;5052745;28;20190;-70
2023/08/29 08:45:17;;;;;;;1.30;1.20;;;21.70;92.40;;;;;;5041055;28;20199;-69
2023/08/29 08:47:43;;;;;;;1.20;1.10;;;21.70;92.40;;;;;;5041944;28;20203;-70
2023/08/29 08:50:10;;;;;;;1.00;1.00;;;21.70;92.60;;;;;;5034374;28;20186;-69
2023/08/29 08:52:38;;;;;;;1.00;1.00;;;21.70;92.60;;;;;;5046676;28;20237;-70
2023/08/29 08:55:07;;;;;;;1.35;1.23;;;21.70;92.40;;;;;;5039467;28;20187;-70
2023/08/29 08:57:34;;;;;;;1.73;0.98;;;21.70;92.50;;;;;;5047276;28;20183;-69
2023/08/29 08:59:59;;;;;;;1.20;1.10;;;21.70;92.50;;;;;;5032937;28;20192;-70
2023/08/29 09:02:26;;;;;;;2.08;1.13;;;21.70;92.40;;;;;;5044037;28;20178;-69
2023/08/29 09:04:53;;;;;;;1.77;1.10;;;21.70;92.40;;;;;;5035974;28;20174;-70
2023/08/29 09:07:19;;;;;;;1.00;1.00;;;21.70;92.40;;;;;;5053253;28;20202;-69
2023/08/29 09:10:05;;;;;;;1.52;1.30;;;21.70;92.50;;;;;;5035645;28;20595;-70
2023/08/29 09:12:31;;;;;;;1.35;1.23;;;21.70;92.30;;;;;;5017260;28;20194;-69
2023/08/29 09:14:56;;;;;;;0.82;0.80;;;21.70;92.40;;;;;;5049870;28;20554;-70
2023/08/29 09:17:23;;;;;;;1.35;1.15;;;21.70;92.40;;;;;;5051304;28;20708;-70
2023/08/29 09:19:49;;;;;;;2.25;1.52;;;21.70;92.40;;;;;;5043977;28;20190;-69
2023/08/29 09:22:14;;;;;;;1.20;0.90;;;21.70;92.40;;;;;;5050935;28;20186;-70
2023/08/29 09:24:40;;;;;;;1.05;1.05;;;21.70;92.40;;;;;;5040038;28;20206;-69
2023/08/29 09:27:10;;;;;;;1.02;1.02;;;21.70;92.30;;;;;;5024586;28;20211;-70
2023/08/29 09:29:36;;;;;;;1.67;1.40;;;21.80;92.30;;;;;;5046925;28;20203;-70
2023/08/29 09:32:16;;;;;;;1.33;1.25;;;21.70;92.20;;;;;;5048721;28;20190;-69
2023/08/29 09:34:43;;;;;;;1.17;1.17;;;21.70;92.30;;;;;;5046107;28;20283;-69
2023/08/29 09:37:12;;;;;;;1.00;0.90;;;21.70;92.40;;;;;;5040843;28;20231;-70
2023/08/29 09:39:38;;;;;;;0.85;0.85;;;21.70;92.30;;;;;;5051894;28;20244;-70
2023/08/29 09:42:10;;;;;;;1.23;1.10;;;21.70;92.30;;;;;;5044435;28;20175;-70
2023/08/29 09:44:38;;;;;;;1.73;1.10;;;21.70;92.30;;;;;;5046561;28;20245;-70
2023/08/29 09:47:06;;;;;;;1.50;1.40;;;21.70;92.10;;;;;;5040544;28;20215;-70
2023/08/29 09:49:45;;;;;;;1.30;1.20;;;21.70;92.20;;;;;;5043326;28;20218;-70
2023/08/29 09:52:13;;;;;;;1.40;1.10;;;21.80;92.20;;;;;;5044426;28;20206;-70
2023/08/29 09:54:52;;;;;;;0.98;0.98;;;21.70;92.20;;;;;;5043014;28;20186;-70
2023/08/29 09:57:27;;;;;;;1.02;0.90;;;21.70;92.20;;;;;;5040637;28;20299;-70
2023/08/29 09:59:57;;;;;;;1.70;1.10;;;21.80;92.20;;;;;;5046598;28;20573;-70
2023/08/29 10:02:25;;;;;;;1.20;1.10;;;21.70;92.00;;;;;;5042694;28;20666;-70
2023/08/29 10:05:05;;;;;;;1.08;1.00;;;21.70;92.10;;;;;;5032855;28;20178;-70
2023/08/29 10:07:40;;;;;;;1.25;1.15;;;21.70;92.00;;;;;;5031686;28;20256;-70
2023/08/29 10:10:12;;;;;;;0.93;0.93;;;21.70;92.10;;;;;;5023657;28;20638;-70
2023/08/29 10:12:40;;;;;;;1.20;1.10;;;21.70;92.10;;;;;;5042728;28;20186;-70
2023/08/29 10:15:08;;;;;;;1.00;0.93;;;21.70;92.00;;;;;;5051007;28;20190;-70
2023/08/29 10:17:36;;;;;;;1.00;1.00;;;21.80;92.00;;;;;;5052174;28;20189;-70
2023/08/29 10:20:12;;;;;;;1.30;1.02;;;21.80;92.00;;;;;;5042517;28;20198;-70
2023/08/29 10:22:41;;;;;;;1.33;1.23;;;21.70;92.00;;;;;;5037870;28;20603;-69
2023/08/29 10:25:07;;;;;;;1.08;1.08;;;21.70;92.00;;;;;;5050666;28;20225;-69
2023/08/29 10:27:34;;;;;;;1.35;1.15;;;21.70;92.00;;;;;;5049964;28;20193;-69
2023/08/29 10:30:02;;;;;;;1.10;1.10;;;21.70;91.90;;;;;;5043511;28;20257;-70
2023/08/29 10:32:30;;;;;;;1.02;1.02;;;21.70;92.00;;;;;;5050584;28;20248;-69
2023/08/29 10:34:56;;;;;;;1.73;1.00;;;21.70;91.90;;;;;;5050506;28;20685;-69
2023/08/29 10:37:22;;;;;;;1.20;1.10;;;21.70;91.80;;;;;;5040906;28;20199;-69
2023/08/29 10:39:51;;;;;;;1.67;1.08;;;21.70;91.80;;;;;;5028535;28;20178;-69
2023/08/29 10:42:17;;;;;;;1.30;1.20;;;21.70;91.80;;;;;;5043776;28;20235;-70
2023/08/29 10:44:47;;;;;;;1.15;1.15;;;21.70;91.90;;;;;;5051554;28;20257;-69
2023/08/29 10:47:23;;;;;;;1.40;1.30;;;21.70;91.90;;;;;;5050972;28;20210;-70
2023/08/29 10:50:05;;;;;;;1.00;1.00;;;21.70;92.00;;;;;;5045968;28;20182;-70
2023/08/29 10:52:41;;;;;;;1.15;1.10;;;21.70;92.00;;;;;;5048308;28;20242;-70
2023/08/29 10:55:27;;;;;;;1.40;1.30;;;21.70;92.00;;;;;;5030564;28;20183;-69
2023/08/29 10:57:58;;;;;;;1.50;1.40;;;21.70;92.00;;;;;;5038394;28;20222;-69
2023/08/29 11:00:54;;;;;;;1.42;1.30;;;21.70;92.10;;;;;;5049376;28;20182;-69
2023/08/29 11:03:49;;;;;;;1.15;1.15;;;21.70;91.90;;;;;;5034178;28;20230;-69
2023/08/29 11:06:22;;;;;;;1.38;1.27;;;21.70;92.00;;;;;;5041661;28;20213;-69
2023/08/29 11:08:48;;;;;;;1.05;1.05;;;21.70;91.90;;;;;;5025641;28;20198;-70
2023/08/29 11:11:22;;;;;;;1.35;1.00;;;21.70;92.00;;;;;;5041537;28;20217;-70
2023/08/29 11:13:56;;;;;;;1.02;0.93;;;21.70;91.90;;;;;;5041906;28;20174;-70
2023/08/29 11:16:22;;;;;;;1.45;1.10;;;21.70;91.90;;;;;;5043088;28;20294;-70
2023/08/29 11:18:58;;;;;;;1.23;1.15;;;21.70;91.90;;;;;;5045146;28;20193;-70
2023/08/29 11:21:24;;;;;;;1.40;1.30;;;21.70;91.80;;;;;;5048820;28;20269;-69
2023/08/29 11:23:50;;;;;;;1.33;1.23;;;21.70;91.70;;;;;;5046491;28;20184;-70
2023/08/29 11:26:16;;;;;;;1.23;1.13;;;21.70;91.70;;;;;;5018321;28;20266;-70
2023/08/29 11:28:45;;;;;;;1.45;1.17;;;21.70;91.70;;;;;;5027599;28;20216;-70
2023/08/29 11:31:12;;;;;;;1.20;1.20;;;21.70;91.70;;;;;;5035628;28;20237;-70
2023/08/29 11:33:38;;;;;;;1.08;1.08;;;21.70;91.80;;;;;;5026091;28;20181;-70
2023/08/29 11:36:06;;;;;;;1.10;1.10;;;21.70;91.90;;;;;;5043205;28;20203;-70
2023/08/29 11:38:33;;;;;;;1.20;1.10;;;21.70;91.80;;;;;;5050241;28;20252;-69
2023/08/29 11:41:05;;;;;;;1.52;1.25;;;21.70;91.80;;;;;;5045889;28;20186;-70
2023/08/29 11:43:34;;;;;;;1.15;1.02;;;21.70;91.80;;;;;;5054086;28;20194;-69
2023/08/29 11:46:03;;;;;;;1.40;1.30;;;21.70;91.80;;;;;;5045968;28;20209;-69
2023/08/29 11:48:32;;;;;;;1.50;1.40;;;21.70;91.80;;;;;;5047158;28;20306;-69
2023/08/29 11:51:05;;;;;;;1.27;1.17;;;21.70;91.70;;;;;;5054206;28;20186;-69
2023/08/29 11:53:36;;;;;;;1.42;1.33;;;21.70;91.70;;;;;;5044574;28;20273;-69
2023/08/29 11:56:05;;;;;;;1.20;1.13;;;21.70;91.70;;;;;;5032586;28;20206;-70
2023/08/29 11:58:34;;;;;;;1.17;1.17;;;21.70;91.70;;;;;;5052084;28;20210;-69
2023/08/29 12:01:04;;;;;;;1.17;1.13;;;21.70;91.70;;;;;;5042499;28;20190;-69
2023/08/29 12:03:34;;;;;;;1.48;1.38;;;21.70;91.70;;;;;;5034416;28;20195;-70
2023/08/29 12:06:00;;;;;;;1.25;1.10;;;21.70;91.70;;;;;;5030173;28;20224;-69
2023/08/29 12:08:44;;;;;;;1.42;1.30;;;21.70;91.70;;;;;;5046921;28;20589;-70
2023/08/29 12:11:13;;;;;;;1.80;1.20;;;21.70;91.60;;;;;;5046220;28;20689;-68
2023/08/29 12:13:42;;;;;;;1.15;1.10;;;21.70;91.70;;;;;;5045900;28;20292;-70
2023/08/29 12:16:16;;;;;;;1.63;1.52;;;21.70;91.70;;;;;;5046297;28;20222;-70
2023/08/29 12:18:43;;;;;;;1.95;1.10;;;21.70;91.60;;;;;;5038208;28;20201;-70
2023/08/29 12:21:26;;;;;;;0.90;0.90;;;21.70;91.60;;;;;;5043292;28;20618;-72
2023/08/29 12:23:52;;;;;;;1.33;1.23;;;21.70;91.60;;;;;;5047630;28;20212;-70
2023/08/29 12:26:18;;;;;;;1.88;1.20;;;21.70;91.60;;;;;;5053545;28;20220;-69
2023/08/29 12:28:44;;;;;;;1.27;1.00;;;21.70;91.60;;;;;;5036982;28;20232;-69
2023/08/29 12:31:10;;;;;;;1.20;1.20;;;21.70;91.60;;;;;;5029406;28;20653;-69
2023/08/29 12:33:36;;;;;;;1.23;1.13;;;21.70;91.50;;;;;;5042620;28;20194;-69
2023/08/29 12:36:05;;;;;;;1.27;1.15;;;21.70;91.50;;;;;;5047907;28;20206;-70
2023/08/29 12:38:31;;;;;;;1.00;1.00;;;21.70;91.50;;;;;;5036846;28;20216;-70
2023/08/29 12:40:57;;;;;;;1.00;1.00;;;21.70;91.50;;;;;;5045163;28;20182;-70
2023/08/29 12:43:24;;;;;;;1.25;1.15;;;21.70;91.50;;;;;;5045062;28;20199;-69
2023/08/29 12:45:49;;;;;;;1.02;1.00;;;21.70;91.40;;;;;;5049346;28;20279;-69
2023/08/29 12:48:18;;;;;;;0.90;0.90;;;21.70;91.40;;;;;;5049575;28;20289;-70
2023/08/29 12:50:45;;;;;;;1.00;1.00;;;21.70;91.40;;;;;;5036950;28;20179;-70